• Join FlightAware (Why Join?)
  • Login
  • US Flag 
12:07PM EDT


 

Airport Tracker/Info


-or-


 

Live Flight TrackerFlight Track Log ✈ SWA720 ✈ 18-Aug-2014 ✈ KMDW - KLAS

Flight Track Log - Related Links

Times and Time Zones

All times are in EDT time to prevent confusion due to time zone crossing. See the SWA720 flight status page for this flight to view local times or setup timezone preferences in your user account.

Time Position Orientation Groundspeed Altitude Reporting Facility
EDT Latitude Longitude Course Direction KTS MPH feet Rate Location/Type
03:27PM 41.8000 -87.8000 249° West 194 223 2,200  Level Chicago TRACON
03:28PM 41.7775 -87.8778 249° West 232 267 4,500 3,000 Climbing Chicago Center
03:29PM 41.7764 -87.9797 269° West 272 313 7,900 3,240 Climbing Chicago Center
03:30PM 41.7931 -88.0869 282° West 280 322 11,300 2,700 Climbing Chicago Center
03:31PM 41.8100 -88.1914 282° West 287 330 13,500 1,800 Climbing Chicago Center
03:32PM 41.8064 -88.3297 268° West 349 402 15,100 1,980 Climbing Chicago Center
03:33PM 41.8033 -88.4692 268° West 371 427 17,700 2,220 Climbing Chicago Center
03:34PM 41.8008 -88.6019 269° West 380 437 19,800 2,220 Climbing Chicago Center
03:35PM 41.7964 -88.7761 268° West 392 451 22,400 2,040 Climbing Chicago Center
03:36PM 41.8036 -88.9272 274° West 404 465 24,100 1,620 Climbing Chicago Center
03:37PM 41.8131 -89.0853 275° West 423 487 25,800 1,680 Climbing Chicago Center
03:38PM 41.8222 -89.2422 275° West 424 488 27,600 1,500 Climbing Chicago Center
03:39PM 41.8319 -89.4031 275° West 431 496 29,000 1,620 Climbing Chicago Center
03:40PM 41.8425 -89.5972 274° West 436 502 31,000 1,680 Climbing Chicago Center
03:41PM 41.8392 -89.7572 268° West 438 504 32,500 1,500 Climbing Chicago Center
03:42PM 41.8278 -89.9075 264° West 431 496 34,200 1,620 Climbing Chicago Center
03:43PM 41.8172 -90.0578 265° West 415 478 35,900 840 Climbing Chicago Center
03:44PM 41.8053 -90.2075 264° West 411 473 36,000  Climbing Chicago Center
03:45PM 41.7886 -90.3919 263° West 416 479 36,000  Level Chicago Center
03:46PM 41.7761 -90.5422 264° West 411 473 36,000  Level Chicago Center
03:47PM 41.7628 -90.6933 263° West 411 473 36,000  Level Chicago Center
03:48PM 41.7506 -90.8428 264° West 409 471 36,000  Level Chicago Center
03:49PM 41.7367 -90.9942 263° West 409 471 36,000  Level Chicago Center
03:50PM 41.7206 -91.1722 263° West 406 467 36,000  Level Chicago Center
03:51PM 41.7069 -91.3228 263° West 408 470 36,000  Level Chicago Center
03:52PM 41.6933 -91.4536 262° West 404 465 36,000  Level Chicago Center
03:53PM 41.6769 -91.6322 263° West 405 466 36,000  Level Chicago Center
03:54PM 41.6628 -91.7781 263° West 402 463 36,000  Level Chicago Center
03:56PM 41.6492 -91.9258 263° West 404 465 36,000  Level Chicago Center
03:57PM 41.6336 -92.0747 262° West 407 468 36,000 480 Level Chicago Center
03:58PM 41.6167 -92.2533 263° West 408 470 37,000 900 Climbing Chicago Center
03:59PM 41.6014 -92.3997 262° West 407 468 37,900 480 Climbing Chicago Center
04:00PM 41.5861 -92.5431 262° West 401 461 38,000  Climbing Chicago Center
04:00PM 41.5739 -92.6592 262° West 402 463 38,000  Level Minneapolis Center
04:02PM 41.5586 -92.8067 262° West 402 463 38,000  Level Minneapolis Center
04:03PM 41.5414 -92.9839 263° West 403 464 38,000  Level Minneapolis Center
04:04PM 41.5242 -93.1289 261° West 403 464 38,000  Level Minneapolis Center
04:05PM 41.5086 -93.2750 262° West 403 464 38,000  Level Minneapolis Center
04:06PM 41.4917 -93.4200 261° West 403 464 38,000  Level Minneapolis Center
04:07PM 41.4761 -93.5644 262° West 402 463 38,000  Level Minneapolis Center
04:08PM 41.4569 -93.7389 262° West 402 463 38,000  Level Minneapolis Center
04:09PM 41.4400 -93.8836 261° West 402 463 38,000  Level Minneapolis Center
04:10PM 41.4239 -94.0289 262° West 402 463 38,000  Level Minneapolis Center
04:11PM 41.4050 -94.1733 260° West 401 461 38,000  Level Minneapolis Center
04:12PM 41.3856 -94.3378 261° West 401 461 38,000  Level Minneapolis Center
04:13PM 41.3689 -94.4831 261° West 399 459 38,000  Level Minneapolis Center
04:14PM 41.3517 -94.6267 261° West 398 458 38,000  Level Minneapolis Center
04:15PM 41.3339 -94.7711 261° West 397 457 38,000  Level Minneapolis Center
04:16PM 41.3150 -94.9139 260° West 397 457 38,000  Level Minneapolis Center
04:17PM 41.2942 -95.0864 261° West 396 456 38,000  Level Minneapolis Center
04:18PM 41.2764 -95.2283 261° West 395 455 38,000  Level Minneapolis Center
04:19PM 41.2575 -95.3722 260° West 395 455 38,000  Level Minneapolis Center
04:20PM 41.2372 -95.5172 260° West 395 455 38,000  Level Minneapolis Center
04:21PM 41.2192 -95.6722 261° West 395 455 38,000  Level Minneapolis Center
04:22PM 41.1981 -95.8172 259° West 395 455 38,000  Level Minneapolis Center
04:23PM 41.1794 -95.9606 260° West 395 455 38,000  Level Minneapolis Center
04:24PM 41.1600 -96.1056 260° West 396 456 38,000  Level Minneapolis Center
04:25PM 41.1400 -96.2511 260° West 397 457 38,000  Level Minneapolis Center
04:26PM 41.1156 -96.4253 260° West 406 467 38,000  Level Minneapolis Center
04:27PM 41.0956 -96.5703 260° West 405 466 38,000  Level Minneapolis Center
04:28PM 41.0747 -96.7169 259° West 405 466 38,000  Level Minneapolis Center
04:29PM 41.0536 -96.8633 259° West 405 466 38,000  Level Minneapolis Center
04:31PM 41.0325 -97.0089 259° West 405 466 38,000  Level Minneapolis Center
04:32PM 41.0111 -97.1528 259° West 404 465 38,000  Level Minneapolis Center
04:33PM 40.9875 -97.3275 260° West 402 463 38,000  Level Minneapolis Center
04:34PM 40.9653 -97.4706 258° West 401 461 38,000  Level Minneapolis Center
04:35PM 40.9439 -97.6153 259° West 400 460 38,000  Level Minneapolis Center
04:36PM 40.9214 -97.7600 258° West 401 461 38,000  Level Minneapolis Center
04:37PM 40.9000 -97.9061 259° West 401 461 38,000  Level Minneapolis Center
04:38PM 40.8775 -98.0511 258° West 401 461 38,000  Level Minneapolis Center
04:39PM 40.8511 -98.2244 259° West 401 461 38,000  Level Minneapolis Center
04:40PM 40.8278 -98.3681 258° West 401 461 38,000  Level Minneapolis Center
04:41PM 40.8061 -98.5064 258° West 401 461 38,000  Level Minneapolis Center
04:42PM 40.7828 -98.6494 258° West 401 461 38,000  Level Minneapolis Center
04:43PM 40.7600 -98.7922 258° West 401 461 38,000  Level Minneapolis Center
04:44PM 40.7356 -98.9472 258° West 400 460 38,000  Level Minneapolis Center
04:45PM 40.7117 -99.0917 258° West 400 460 38,000  Level Minneapolis Center
04:46PM 40.6842 -99.2653 258° West 401 461 38,000  Level Minneapolis Center
04:47PM 40.6594 -99.4100 257° West 401 461 38,000  Level Minneapolis Center
04:48PM 40.6358 -99.5547 258° West 401 461 38,000  Level Minneapolis Center
04:49PM 40.6117 -99.6986 258° West 401 461 38,000  Level Minneapolis Center
04:50PM 40.5869 -99.8417 257° West 401 461 38,000  Level Minneapolis Center
04:51PM 40.5622 -99.9844 257° West 401 461 38,000  Level Minneapolis Center
04:52PM 40.5336 -100.1556 258° West 401 461 38,000  Level Minneapolis Center
04:53PM 40.5078 -100.2975 257° West 401 461 38,000  Level Minneapolis Center
04:54PM 40.4825 -100.4414 257° West 401 461 38,000  Level Minneapolis Center
04:55PM 40.4567 -100.5836 257° West 401 461 38,000  Level Minneapolis Center
04:57PM 40.4219 -100.7794 257° West 402 463 38,000  Level Denver Center
04:58PM 40.3928 -100.9400 257° West 402 463 38,000  Level Denver Center
04:59PM 40.3675 -101.0767 256° West 402 463 38,000  Level Denver Center
05:00PM 40.3428 -101.2133 257° West 402 463 38,000  Level Denver Center
05:01PM 40.3144 -101.3722 257° West 401 461 38,000  Level Denver Center
05:02PM 40.2889 -101.5094 256° West 403 464 38,000  Level Denver Center
05:03PM 40.2581 -101.6692 256° West 404 465 38,000  Level Denver Center
05:04PM 40.2328 -101.8064 256° West 406 467 38,000  Level Denver Center
05:05PM 40.2022 -101.9658 256° West 406 467 38,000  Level Denver Center
05:06PM 40.1769 -102.1011 256° West 405 466 38,000  Level Denver Center
05:07PM 40.1458 -102.2586 256° West 402 463 38,000  Level Denver Center
05:08PM 40.1197 -102.3911 256° West 398 458 38,000  Level Denver Center
05:09PM 40.0900 -102.5469 256° West 397 457 38,000  Level Denver Center
05:10PM 40.0636 -102.6800 256° West 396 456 38,000  Level Denver Center
05:11PM 40.0331 -102.8339 256° West 396 456 38,000  Level Denver Center
05:12PM 40.0036 -102.9728 255° West 396 456 38,000  Level Denver Center
05:13PM 39.9761 -103.1125 256° West 398 458 38,000  Level Denver Center
05:14PM 39.9483 -103.2519 255° West 398 458 38,000  Level Denver Center
05:15PM 39.9197 -103.3917 255° West 398 458 38,000  Level Denver Center
05:16PM 39.8900 -103.5303 254° West 398 458 38,000  Level Denver Center
05:17PM 39.8561 -103.6972 255° West 398 458 38,000  Level Denver Center
05:18PM 39.8269 -103.8356 255° West 399 459 38,000  Level Denver Center
05:20PM 39.7983 -103.9728 255° West 398 458 38,000  Level Denver Center
05:21PM 39.7689 -104.1114 255° West 398 458 38,000  Level Denver Center
05:22PM 39.7472 -104.2528 259° West 400 460 38,000  Level Denver Center
05:23PM 39.7500 -104.4192 271° West 397 457 38,000  Level Denver Center
05:24PM 39.7189 -104.5603 254° West 405 466 38,000  Level Denver Center
05:25PM 39.6889 -104.7000 254° West 410 472 38,000  Level Denver Center
05:26PM 39.6486 -104.8339 249° West 416 479 38,000  Level Denver Center
05:27PM 39.5892 -104.9908 244° Southwest 415 478 38,000  Level Denver Center
05:28PM 39.5400 -105.1228 244° Southwest 413 475 38,000  Level Denver Center
05:29PM 39.4922 -105.2536 245° Southwest 407 468 38,000  Level Denver Center
05:30PM 39.4436 -105.3858 245° Southwest 407 468 38,000  Level Denver Center
05:31PM 39.3956 -105.5164 245° Southwest 406 467 38,000  Level Denver Center
05:32PM 39.3617 -105.6842 255° West 403 464 38,000  Level Denver Center
05:33PM 39.3319 -105.8211 254° West 400 460 38,000  Level Denver Center
05:34PM 39.3008 -105.9614 254° West 404 465 38,000  Level Denver Center
05:35PM 39.2686 -106.1022 254° West 405 466 38,000  Level Denver Center
05:36PM 39.2394 -106.2358 254° West 409 471 38,000  Level Denver Center
05:37PM 39.2003 -106.4061 254° West 409 471 38,000  Level Denver Center
05:38PM 39.1678 -106.5472 253° West 410 472 38,000  Level Denver Center
05:39PM 39.1350 -106.6875 253° West 409 471 38,000  Level Denver Center
05:40PM 39.1025 -106.8294 254° West 410 472 38,000  Level Denver Center
05:41PM 39.0708 -106.9694 254° West 410 472 38,000  Level Denver Center
05:42PM 39.0381 -107.1092 253° West 410 472 38,000  Level Denver Center
05:43PM 38.9997 -107.2764 254° West 409 471 38,000  Level Denver Center
05:44PM 38.9661 -107.4147 253° West 406 467 38,000  Level Denver Center
05:45PM 38.9344 -107.5533 254° West 406 467 38,000  Level Denver Center
05:46PM 38.9017 -107.6911 253° West 406 467 38,000  Level Denver Center
05:47PM 38.8689 -107.8300 253° West 406 467 38,000  Level Denver Center
05:48PM 38.8350 -107.9683 253° West 406 467 38,000  Level Denver Center
05:50PM 38.7947 -108.1336 253° West 406 467 38,000  Level Denver Center
05:51PM 38.7606 -108.2719 252° West 406 467 38,000  Level Denver Center
05:52PM 38.7267 -108.4108 253° West 406 467 38,000  Level Denver Center
05:53PM 38.6931 -108.5500 253° West 407 468 38,000  Level Denver Center
05:54PM 38.6586 -108.6886 252° West 407 468 38,000  Level Denver Center
05:55PM 38.6242 -108.8278 252° West 408 470 38,000  Level Denver Center
05:56PM 38.5819 -108.9928 252° West 408 470 38,000  Level Denver Center
05:57PM 38.5475 -109.1314 252° West 408 470 38,000  Level Denver Center
05:58PM 38.5125 -109.2672 252° West 406 467 38,000  Level Denver Center
05:59PM 38.4775 -109.4031 252° West 403 464 38,000  Level Denver Center
06:00PM 38.4436 -109.5369 252° West 402 463 38,000  Level Denver Center
06:01PM 38.4086 -109.6689 251° West 398 458 38,000  Level Denver Center
06:02PM 38.3594 -109.8253 248° West 397 457 38,000  Level Denver Center
06:03PM 38.3097 -109.9467 242° Southwest 391 450 38,000  Level Denver Center
06:04PM 38.2614 -110.0706 244° Southwest 390 449 38,000 -360 Level Denver Center
06:05PM 38.2125 -110.1944 243° Southwest 391 450 37,300 -780 Descending Denver Center
06:06PM 38.1625 -110.3189 243° Southwest 392 451 36,400 -960 Descending Denver Center
06:07PM 38.1233 -110.4194 244° Southwest 394 453 35,600 -1,020 Descending Salt Lake Center
06:08PM 38.0739 -110.5439 243° Southwest 395 455 34,600 -960 Descending Salt Lake Center
06:09PM 38.0236 -110.6708 243° Southwest 398 458 33,700 -900 Descending Salt Lake Center
06:10PM 37.9708 -110.7997 243° Southwest 406 467 32,800 -840 Descending Salt Lake Center
06:11PM 37.9142 -110.9414 243° Southwest 415 478 32,000 -420 Descending Salt Lake Center
06:12PM 37.8614 -111.0731 243° Southwest 416 479 32,000  Level Salt Lake Center
06:13PM 37.8078 -111.2056 243° Southwest 419 482 32,000  Level Salt Lake Center
06:14PM 37.7425 -111.3608 242° Southwest 420 483 32,000  Level Salt Lake Center
06:15PM 37.6906 -111.4894 243° Southwest 413 475 32,000  Level Salt Lake Center
06:16PM 37.6367 -111.6181 242° Southwest 413 475 32,000  Level Salt Lake Center
06:17PM 37.5844 -111.7453 243° Southwest 412 474 32,000  Level Salt Lake Center
06:18PM 37.5317 -111.8697 242° Southwest 407 468 32,000  Level Salt Lake Center
06:19PM 37.4800 -111.9933 242° Southwest 402 463 32,000  Level Salt Lake Center
06:20PM 37.4281 -112.1186 242° Southwest 402 463 32,000  Level Salt Lake Center
06:21PM 37.3631 -112.2725 242° Southwest 409 471 32,000  Level Salt Lake Center
06:22PM 37.3064 -112.4039 242° Southwest 420 483 32,000  Level Salt Lake Center
06:23PM 37.2492 -112.5369 242° Southwest 425 489 32,000  Level Salt Lake Center
06:24PM 37.1906 -112.6753 242° Southwest 440 506 32,000  Level Salt Lake Center
06:25PM 37.1208 -112.8019 235° Southwest 440 506 32,000 -540 Level Salt Lake Center
06:26PM 37.0911 -112.8500 232° Southwest 439 505 31,200 -2,400 Descending Los Angeles Center
06:27PM 37.0167 -113.0006 238° Southwest 427 491 28,400 -1,860 Descending Los Angeles Center
06:28PM 36.9636 -113.1347 244° Southwest 427 491 27,400 -1,020 Descending Los Angeles Center
06:29PM 36.9103 -113.2625 242° Southwest 421 484 26,400 -1,020 Descending Los Angeles Center
06:30PM 36.8581 -113.3897 243° Southwest 413 475 25,400 -960 Descending Los Angeles Center
06:31PM 36.8053 -113.5150 242° Southwest 412 474 24,400 -1,020 Descending Los Angeles Center
06:32PM 36.7531 -113.6397 242° Southwest 409 471 23,300 -1,260 Descending Los Angeles Center
06:33PM 36.6956 -113.7764 242° Southwest 376 433 21,900 -1,200 Descending Los Angeles Center
06:34PM 36.6506 -113.8822 242° Southwest 352 405 20,900 -1,020 Descending Los Angeles Center
06:35PM 36.6064 -113.9858 242° Southwest 341 392 19,900 -1,140 Descending Los Angeles Center
06:36PM 36.5633 -114.0886 242° Southwest 339 390 18,600 -1,260 Descending Los Angeles Center
06:37PM 36.5233 -114.1822 242° Southwest 312 359 17,300 -1,620 Descending Los Angeles Center
06:38PM 36.4797 -114.2806 241° Southwest 300 345 15,300 -1,980 Descending Los Angeles Center
06:39PM 36.4694 -114.3042 242° Southwest 294 338 14,900 -1,500 Descending Los Angeles Center
06:39PM 36.4419 -114.3692 242° Southwest 295 339 13,800 -1,500 Descending Los Angeles Center
06:40PM 36.4306 -114.3925 239° Southwest 290 334 13,400 -1,080 Descending Los Angeles Center
06:40PM 36.4006 -114.4494 237° Southwest 278 320 12,700 -900 Descending Los Angeles Center
06:41PM 36.3583 -114.5314 237° Southwest 278 320 11,800 -1,140 Descending Los Angeles Center
06:42PM 36.3394 -114.5656 236° Southwest 279 321 11,300 -1,200 Descending Los Angeles Center
06:42PM 36.3078 -114.6269 237° Southwest 277 319 10,600 -1,080 Descending Los Angeles Center
06:43PM 36.2664 -114.7050 237° Southwest 269 310 9,400 -1,140 Descending Los Angeles Center
06:45PM 36.2236 -114.7861 237° Southwest 268 308 8,300 -780 Descending Los Angeles Center
06:46PM 36.1889 -114.8539 238° Southwest 222 255 7,900 -720 Descending Los Angeles Center
06:47PM 36.1578 -114.9094 235° Southwest 188 216 6,900 -960 Descending Los Angeles Center
06:48PM 36.1319 -114.9675 241° Southwest 189 217 5,900 -1,140 Descending Los Angeles Center
06:49PM 36.1364 -115.0283 275° West 177 204 4,700 -1,260 Descending Los Angeles Center
06:50PM 36.1389 -115.0889 273° West 166 191 3,500 -1,020 Descending Los Angeles Center
06:51PM 36.1181 -115.1425 244° Southwest 155 178 2,600 -660 Descending Los Angeles Center
06:52PM 36.0847 -115.1619 205° Southwest 143 165 2,100 -540 Descending Los Angeles Center
06:54PM 36.0801 -115.1523 219° Southwest  Level Estimated